sensor_id;sensor_type;location;lat;lon;timestamp;pressure;altitude;pressure_sealevel;temperature;humidity
61524;BME280;47393;38.758;-9.164;2022-07-19T00:00:33;100764.75;;;17.78;100.00
61524;BME280;47393;38.758;-9.164;2022-07-19T00:02:39;100764.94;;;17.76;100.00
61524;BME280;47393;38.758;-9.164;2022-07-19T00:04:41;100768.28;;;17.78;100.00
61524;BME280;47393;38.758;-9.164;2022-07-19T00:06:44;100754.94;;;17.70;100.00
61524;BME280;47393;38.758;-9.164;2022-07-19T00:09:02;100696.19;;;17.39;100.00
61524;BME280;47393;38.758;-9.164;2022-07-19T00:11:03;100764.47;;;17.81;100.00
61524;BME280;47393;38.758;-9.164;2022-07-19T00:13:08;100723.94;;;17.44;100.00
61524;BME280;47393;38.758;-9.164;2022-07-19T00:15:10;100730.44;;;17.50;100.00
61524;BME280;47393;38.758;-9.164;2022-07-19T00:17:38;100760.44;;;17.69;100.00
61524;BME280;47393;38.758;-9.164;2022-07-19T00:19:40;100764.59;;;17.71;100.00
61524;BME280;47393;38.758;-9.164;2022-07-19T00:21:44;100764.09;;;17.76;100.00
61524;BME280;47393;38.758;-9.164;2022-07-19T00:23:47;100706.13;;;17.28;100.00
61524;BME280;47393;38.758;-9.164;2022-07-19T00:26:04;100756.91;;;17.60;100.00
61524;BME280;47393;38.758;-9.164;2022-07-19T00:28:05;100737.25;;;17.44;100.00
61524;BME280;47393;38.758;-9.164;2022-07-19T00:30:09;100741.09;;;17.50;100.00
61524;BME280;47393;38.758;-9.164;2022-07-19T00:32:10;100764.06;;;17.68;100.00
61524;BME280;47393;38.758;-9.164;2022-07-19T00:34:11;100747.06;;;17.52;100.00
61524;BME280;47393;38.758;-9.164;2022-07-19T00:36:12;100757.69;;;17.52;100.00
61524;BME280;47393;38.758;-9.164;2022-07-19T00:38:14;100735.56;;;17.43;100.00
61524;BME280;47393;38.758;-9.164;2022-07-19T00:40:21;100760.72;;;17.57;100.00
61524;BME280;47393;38.758;-9.164;2022-07-19T00:42:25;100730.69;;;17.30;100.00
61524;BME280;47393;38.758;-9.164;2022-07-19T00:44:27;100722.56;;;17.32;100.00
61524;BME280;47393;38.758;-9.164;2022-07-19T00:46:27;100764.69;;;17.53;100.00
61524;BME280;47393;38.758;-9.164;2022-07-19T00:48:28;100699.72;;;17.13;100.00
61524;BME280;47393;38.758;-9.164;2022-07-19T00:50:30;100761.06;;;17.54;100.00
61524;BME280;47393;38.758;-9.164;2022-07-19T00:52:32;100721.25;;;17.28;100.00
61524;BME280;47393;38.758;-9.164;2022-07-19T00:54:34;100715.72;;;17.21;100.00
61524;BME280;47393;38.758;-9.164;2022-07-19T00:56:37;100735.53;;;17.27;100.00
61524;BME280;47393;38.758;-9.164;2022-07-19T00:58:39;100738.69;;;17.30;100.00
61524;BME280;47393;38.758;-9.164;2022-07-19T01:00:41;100745.53;;;17.41;100.00
61524;BME280;47393;38.758;-9.164;2022-07-19T01:02:42;100686.56;;;17.03;100.00
61524;BME280;47393;38.758;-9.164;2022-07-19T01:04:43;100750.06;;;17.49;100.00
61524;BME280;47393;38.758;-9.164;2022-07-19T01:06:44;100748.69;;;17.45;100.00
61524;BME280;47393;38.758;-9.164;2022-07-19T01:08:45;100746.50;;;17.32;100.00
61524;BME280;47393;38.758;-9.164;2022-07-19T01:10:49;100746.00;;;17.28;100.00
61524;BME280;47393;38.758;-9.164;2022-07-19T01:12:50;100744.84;;;17.31;100.00
61524;BME280;47393;38.758;-9.164;2022-07-19T01:14:58;100730.53;;;17.24;100.00
61524;BME280;47393;38.758;-9.164;2022-07-19T01:17:03;100733.81;;;17.18;100.00
61524;BME280;47393;38.758;-9.164;2022-07-19T01:19:07;100734.53;;;17.28;100.00
61524;BME280;47393;38.758;-9.164;2022-07-19T01:21:17;100728.19;;;17.21;100.00
61524;BME280;47393;38.758;-9.164;2022-07-19T01:23:19;100727.03;;;17.23;100.00
61524;BME280;47393;38.758;-9.164;2022-07-19T01:25:22;100731.34;;;17.24;100.00
61524;BME280;47393;38.758;-9.164;2022-07-19T01:27:31;100743.97;;;17.22;100.00
61524;BME280;47393;38.758;-9.164;2022-07-19T01:29:33;100737.63;;;17.15;100.00
61524;BME280;47393;38.758;-9.164;2022-07-19T01:31:33;100708.19;;;16.82;100.00
61524;BME280;47393;38.758;-9.164;2022-07-19T01:33:42;100743.56;;;17.09;100.00
61524;BME280;47393;38.758;-9.164;2022-07-19T01:35:43;100713.84;;;16.87;100.00
61524;BME280;47393;38.758;-9.164;2022-07-19T01:37:56;100691.91;;;16.77;100.00
61524;BME280;47393;38.758;-9.164;2022-07-19T01:39:57;100691.56;;;16.80;100.00
61524;BME280;47393;38.758;-9.164;2022-07-19T01:41:58;100680.44;;;16.76;100.00
61524;BME280;47393;38.758;-9.164;2022-07-19T01:44:04;100682.09;;;16.77;100.00
61524;BME280;47393;38.758;-9.164;2022-07-19T01:46:09;100666.78;;;16.71;100.00
61524;BME280;47393;38.758;-9.164;2022-07-19T01:48:11;100665.66;;;16.74;100.00
61524;BME280;47393;38.758;-9.164;2022-07-19T01:50:16;100678.41;;;16.70;100.00
61524;BME280;47393;38.758;-9.164;2022-07-19T01:52:17;100649.28;;;16.60;100.00
61524;BME280;47393;38.758;-9.164;2022-07-19T01:54:21;100723.81;;;17.11;100.00
61524;BME280;47393;38.758;-9.164;2022-07-19T01:56:23;100647.81;;;16.66;100.00
61524;BME280;47393;38.758;-9.164;2022-07-19T01:58:55;100637.44;;;16.47;100.00
61524;BME280;47393;38.758;-9.164;2022-07-19T02:01:11;100698.47;;;16.91;100.00
61524;BME280;47393;38.758;-9.164;2022-07-19T02:03:21;100696.72;;;16.82;100.00
61524;BME280;47393;38.758;-9.164;2022-07-19T02:05:25;100717.09;;;16.99;100.00
61524;BME280;47393;38.758;-9.164;2022-07-19T02:07:32;100636.91;;;16.43;100.00
61524;BME280;47393;38.758;-9.164;2022-07-19T02:09:39;100675.25;;;16.67;100.00
61524;BME280;47393;38.758;-9.164;2022-07-19T02:11:40;100703.97;;;16.89;100.00
61524;BME280;47393;38.758;-9.164;2022-07-19T02:13:41;100724.78;;;17.02;100.00
61524;BME280;47393;38.758;-9.164;2022-07-19T02:15:45;100722.94;;;17.03;100.00
61524;BME280;47393;38.758;-9.164;2022-07-19T02:17:48;100722.13;;;17.10;100.00
61524;BME280;47393;38.758;-9.164;2022-07-19T02:19:50;100702.84;;;17.00;100.00
61524;BME280;47393;38.758;-9.164;2022-07-19T02:21:51;100642.06;;;16.71;100.00
61524;BME280;47393;38.758;-9.164;2022-07-19T02:23:55;100717.50;;;17.12;100.00
61524;BME280;47393;38.758;-9.164;2022-07-19T02:26:01;100648.47;;;16.60;100.00
61524;BME280;47393;38.758;-9.164;2022-07-19T02:28:02;100733.25;;;17.06;100.00
61524;BME280;47393;38.758;-9.164;2022-07-19T02:30:10;100659.25;;;16.58;100.00
61524;BME280;47393;38.758;-9.164;2022-07-19T02:32:11;100697.41;;;16.84;100.00
61524;BME280;47393;38.758;-9.164;2022-07-19T02:34:12;100731.94;;;17.10;100.00
61524;BME280;47393;38.758;-9.164;2022-07-19T02:36:36;100712.09;;;16.96;100.00
61524;BME280;47393;38.758;-9.164;2022-07-19T02:38:40;100697.09;;;16.87;100.00
61524;BME280;47393;38.758;-9.164;2022-07-19T02:40:43;100721.81;;;17.05;100.00
61524;BME280;47393;38.758;-9.164;2022-07-19T02:42:44;100697.31;;;16.93;100.00
61524;BME280;47393;38.758;-9.164;2022-07-19T02:44:54;100726.59;;;17.02;100.00
61524;BME280;47393;38.758;-9.164;2022-07-19T02:47:11;100694.19;;;16.72;100.00
61524;BME280;47393;38.758;-9.164;2022-07-19T02:49:12;100710.84;;;16.82;100.00
61524;BME280;47393;38.758;-9.164;2022-07-19T02:51:16;100726.41;;;16.95;100.00
61524;BME280;47393;38.758;-9.164;2022-07-19T02:53:20;100645.66;;;16.35;100.00
61524;BME280;47393;38.758;-9.164;2022-07-19T02:55:26;100647.50;;;16.35;100.00
61524;BME280;47393;38.758;-9.164;2022-07-19T02:57:30;100644.00;;;16.34;100.00
61524;BME280;47393;38.758;-9.164;2022-07-19T02:59:39;100681.47;;;16.57;100.00
61524;BME280;47393;38.758;-9.164;2022-07-19T03:01:46;100685.13;;;16.56;100.00
61524;BME280;47393;38.758;-9.164;2022-07-19T03:03:53;100708.88;;;16.58;100.00
61524;BME280;47393;38.758;-9.164;2022-07-19T03:05:57;100733.56;;;16.76;100.00
61524;BME280;47393;38.758;-9.164;2022-07-19T03:07:58;100706.22;;;16.58;100.00
61524;BME280;47393;38.758;-9.164;2022-07-19T03:10:08;100698.25;;;16.58;100.00
61524;BME280;47393;38.758;-9.164;2022-07-19T03:12:16;100699.75;;;16.60;100.00
61524;BME280;47393;38.758;-9.164;2022-07-19T03:14:17;100736.81;;;16.88;100.00
61524;BME280;47393;38.758;-9.164;2022-07-19T03:16:21;100697.47;;;16.66;100.00
61524;BME280;47393;38.758;-9.164;2022-07-19T03:18:22;100717.47;;;16.78;100.00
61524;BME280;47393;38.758;-9.164;2022-07-19T03:20:23;100700.91;;;16.58;100.00
61524;BME280;47393;38.758;-9.164;2022-07-19T03:22:27;100731.50;;;16.88;100.00
61524;BME280;47393;38.758;-9.164;2022-07-19T03:24:28;100751.34;;;17.02;100.00
61524;BME280;47393;38.758;-9.164;2022-07-19T03:26:29;100754.50;;;17.06;100.00
61524;BME280;47393;38.758;-9.164;2022-07-19T03:28:30;100751.03;;;17.05;100.00
61524;BME280;47393;38.758;-9.164;2022-07-19T03:30:31;100744.22;;;17.03;100.00
61524;BME280;47393;38.758;-9.164;2022-07-19T03:32:37;100715.56;;;16.88;100.00
61524;BME280;47393;38.758;-9.164;2022-07-19T03:34:41;100716.19;;;16.82;100.00
61524;BME280;47393;38.758;-9.164;2022-07-19T03:36:54;100739.69;;;16.95;100.00
61524;BME280;47393;38.758;-9.164;2022-07-19T03:38:55;100711.06;;;16.63;100.00
61524;BME280;47393;38.758;-9.164;2022-07-19T03:40:56;100706.13;;;16.68;100.00
61524;BME280;47393;38.758;-9.164;2022-07-19T03:43:06;100753.25;;;16.92;100.00
61524;BME280;47393;38.758;-9.164;2022-07-19T03:45:11;100731.69;;;16.69;100.00
61524;BME280;47393;38.758;-9.164;2022-07-19T03:47:35;100756.69;;;16.84;100.00
61524;BME280;47393;38.758;-9.164;2022-07-19T03:49:38;100741.94;;;16.64;100.00
61524;BME280;47393;38.758;-9.164;2022-07-19T03:51:54;100731.25;;;16.55;100.00
61524;BME280;47393;38.758;-9.164;2022-07-19T03:53:55;100689.28;;;16.33;100.00
61524;BME280;47393;38.758;-9.164;2022-07-19T03:55:57;100751.63;;;16.73;100.00
61524;BME280;47393;38.758;-9.164;2022-07-19T03:57:58;100719.59;;;16.48;100.00
61524;BME280;47393;38.758;-9.164;2022-07-19T04:00:02;100736.19;;;16.50;100.00
61524;BME280;47393;38.758;-9.164;2022-07-19T04:02:12;100692.91;;;16.32;100.00
61524;BME280;47393;38.758;-9.164;2022-07-19T04:04:13;100705.78;;;16.44;100.00
61524;BME280;47393;38.758;-9.164;2022-07-19T04:06:14;100760.97;;;16.77;100.00
61524;BME280;47393;38.758;-9.164;2022-07-19T04:08:14;100734.97;;;16.63;100.00
61524;BME280;47393;38.758;-9.164;2022-07-19T04:10:16;100695.72;;;16.30;100.00
61524;BME280;47393;38.758;-9.164;2022-07-19T04:12:17;100766.44;;;16.75;100.00
61524;BME280;47393;38.758;-9.164;2022-07-19T04:14:29;100737.19;;;16.49;100.00
61524;BME280;47393;38.758;-9.164;2022-07-19T04:16:33;100679.84;;;16.12;100.00
61524;BME280;47393;38.758;-9.164;2022-07-19T04:18:37;100788.50;;;16.76;100.00
61524;BME280;47393;38.758;-9.164;2022-07-19T04:20:41;100788.16;;;16.71;100.00
61524;BME280;47393;38.758;-9.164;2022-07-19T04:22:44;100770.53;;;16.70;100.00
61524;BME280;47393;38.758;-9.164;2022-07-19T04:24:48;100790.91;;;16.87;100.00
61524;BME280;47393;38.758;-9.164;2022-07-19T04:27:13;100781.06;;;16.80;100.00
61524;BME280;47393;38.758;-9.164;2022-07-19T04:29:14;100795.56;;;16.85;100.00
61524;BME280;47393;38.758;-9.164;2022-07-19T04:31:15;100766.38;;;16.67;100.00
61524;BME280;47393;38.758;-9.164;2022-07-19T04:33:24;100760.72;;;16.70;100.00
61524;BME280;47393;38.758;-9.164;2022-07-19T04:35:26;100723.28;;;16.55;100.00
61524;BME280;47393;38.758;-9.164;2022-07-19T04:37:27;100750.56;;;16.84;100.00
61524;BME280;47393;38.758;-9.164;2022-07-19T04:39:31;100799.94;;;16.94;100.00
61524;BME280;47393;38.758;-9.164;2022-07-19T04:41:34;100784.63;;;16.88;100.00
61524;BME280;47393;38.758;-9.164;2022-07-19T04:43:35;100797.78;;;16.90;100.00
61524;BME280;47393;38.758;-9.164;2022-07-19T04:45:39;100776.91;;;16.77;100.00
61524;BME280;47393;38.758;-9.164;2022-07-19T04:47:40;100759.50;;;16.56;100.00
61524;BME280;47393;38.758;-9.164;2022-07-19T04:49:41;100792.16;;;16.75;100.00
61524;BME280;47393;38.758;-9.164;2022-07-19T04:51:42;100762.22;;;16.47;100.00
61524;BME280;47393;38.758;-9.164;2022-07-19T04:53:43;100793.38;;;16.81;100.00
61524;BME280;47393;38.758;-9.164;2022-07-19T04:55:44;100764.50;;;16.59;100.00
61524;BME280;47393;38.758;-9.164;2022-07-19T04:57:45;100779.13;;;16.64;100.00
61524;BME280;47393;38.758;-9.164;2022-07-19T04:59:54;100802.66;;;16.85;100.00
61524;BME280;47393;38.758;-9.164;2022-07-19T05:01:55;100817.94;;;16.83;100.00
61524;BME280;47393;38.758;-9.164;2022-07-19T05:03:57;100790.34;;;16.75;100.00
61524;BME280;47393;38.758;-9.164;2022-07-19T05:05:57;100804.44;;;16.76;100.00
61524;BME280;47393;38.758;-9.164;2022-07-19T05:08:02;100786.41;;;16.61;100.00
61524;BME280;47393;38.758;-9.164;2022-07-19T05:10:04;100820.22;;;16.77;100.00
61524;BME280;47393;38.758;-9.164;2022-07-19T05:12:05;100791.78;;;16.70;100.00
61524;BME280;47393;38.758;-9.164;2022-07-19T05:14:09;100811.34;;;16.87;100.00
61524;BME280;47393;38.758;-9.164;2022-07-19T05:16:10;100813.25;;;16.94;100.00
61524;BME280;47393;38.758;-9.164;2022-07-19T05:18:11;100732.81;;;16.40;100.00
61524;BME280;47393;38.758;-9.164;2022-07-19T05:20:14;100778.13;;;16.65;100.00
61524;BME280;47393;38.758;-9.164;2022-07-19T05:22:16;100735.53;;;16.48;100.00
61524;BME280;47393;38.758;-9.164;2022-07-19T05:24:17;100784.94;;;16.85;100.00
61524;BME280;47393;38.758;-9.164;2022-07-19T05:26:17;100802.81;;;17.01;100.00
61524;BME280;47393;38.758;-9.164;2022-07-19T05:28:18;100782.22;;;16.77;100.00
61524;BME280;47393;38.758;-9.164;2022-07-19T05:30:19;100823.59;;;17.06;100.00
61524;BME280;47393;38.758;-9.164;2022-07-19T05:32:23;100804.28;;;16.95;100.00
61524;BME280;47393;38.758;-9.164;2022-07-19T05:34:25;100801.94;;;16.92;100.00
61524;BME280;47393;38.758;-9.164;2022-07-19T05:36:31;100823.25;;;17.01;100.00
61524;BME280;47393;38.758;-9.164;2022-07-19T05:38:40;100785.41;;;16.81;100.00
61524;BME280;47393;38.758;-9.164;2022-07-19T05:40:44;100816.75;;;16.95;100.00
61524;BME280;47393;38.758;-9.164;2022-07-19T05:42:50;100824.38;;;17.24;100.00
61524;BME280;47393;38.758;-9.164;2022-07-19T05:44:54;100809.03;;;17.44;100.00
61524;BME280;47393;38.758;-9.164;2022-07-19T05:46:57;100749.50;;;17.37;100.00
61524;BME280;47393;38.758;-9.164;2022-07-19T05:49:01;100782.69;;;17.68;99.22
61524;BME280;47393;38.758;-9.164;2022-07-19T05:51:05;100790.69;;;17.68;98.47
61524;BME280;47393;38.758;-9.164;2022-07-19T05:53:09;100823.94;;;17.72;98.95
61524;BME280;47393;38.758;-9.164;2022-07-19T05:55:32;100832.22;;;17.60;99.50
61524;BME280;47393;38.758;-9.164;2022-07-19T05:57:44;100803.25;;;17.49;99.44
61524;BME280;47393;38.758;-9.164;2022-07-19T05:59:54;100845.75;;;18.26;97.43
61524;BME280;47393;38.758;-9.164;2022-07-19T06:01:58;100850.91;;;19.35;89.49
61524;BME280;47393;38.758;-9.164;2022-07-19T06:04:11;100779.50;;;20.16;80.80
61524;BME280;47393;38.758;-9.164;2022-07-19T06:06:12;100810.28;;;21.26;76.43
61524;BME280;47393;38.758;-9.164;2022-07-19T06:08:14;100822.19;;;22.05;72.09
61524;BME280;47393;38.758;-9.164;2022-07-19T06:10:18;100819.16;;;22.52;68.94
61524;BME280;47393;38.758;-9.164;2022-07-19T06:12:32;100862.88;;;23.59;65.95
61524;BME280;47393;38.758;-9.164;2022-07-19T06:14:43;100825.50;;;24.19;62.31
61524;BME280;47393;38.758;-9.164;2022-07-19T06:16:56;100797.22;;;24.83;58.69
61524;BME280;47393;38.758;-9.164;2022-07-19T06:21:17;100839.19;;;25.83;55.08
61524;BME280;47393;38.758;-9.164;2022-07-19T06:23:26;100842.38;;;25.60;55.81
61524;BME280;47393;38.758;-9.164;2022-07-19T06:25:35;100893.84;;;27.00;52.85
61524;BME280;47393;38.758;-9.164;2022-07-19T06:27:43;100897.09;;;27.71;50.50
61524;BME280;47393;38.758;-9.164;2022-07-19T06:32:17;100902.19;;;29.24;46.52
61524;BME280;47393;38.758;-9.164;2022-07-19T06:37:09;100879.78;;;28.93;45.11
61524;BME280;47393;38.758;-9.164;2022-07-19T06:39:26;100877.19;;;28.75;45.62
61524;BME280;47393;38.758;-9.164;2022-07-19T06:42:05;100901.41;;;28.70;45.47
61524;BME280;47393;38.758;-9.164;2022-07-19T06:44:32;100878.84;;;28.76;46.07
61524;BME280;47393;38.758;-9.164;2022-07-19T06:46:42;100908.41;;;29.37;44.22
61524;BME280;47393;38.758;-9.164;2022-07-19T06:48:43;100905.31;;;28.43;46.27
61524;BME280;47393;38.758;-9.164;2022-07-19T06:50:56;100904.28;;;28.44;46.09
61524;BME280;47393;38.758;-9.164;2022-07-19T06:53:02;100903.78;;;27.68;48.34
61524;BME280;47393;38.758;-9.164;2022-07-19T06:55:04;100868.50;;;28.96;45.34
61524;BME280;47393;38.758;-9.164;2022-07-19T06:57:08;100892.41;;;29.99;43.15
61524;BME280;47393;38.758;-9.164;2022-07-19T06:59:09;100884.28;;;30.96;40.47
61524;BME280;47393;38.758;-9.164;2022-07-19T07:01:10;100900.88;;;32.50;37.73
61524;BME280;47393;38.758;-9.164;2022-07-19T07:03:10;100887.56;;;31.32;38.25
61524;BME280;47393;38.758;-9.164;2022-07-19T07:05:14;100896.31;;;30.83;40.61
61524;BME280;47393;38.758;-9.164;2022-07-19T07:07:15;100893.09;;;31.03;39.60
61524;BME280;47393;38.758;-9.164;2022-07-19T07:09:21;100924.31;;;31.18;39.56
61524;BME280;47393;38.758;-9.164;2022-07-19T07:11:28;100896.28;;;31.34;38.63
61524;BME280;47393;38.758;-9.164;2022-07-19T07:13:32;100926.66;;;31.70;37.97
61524;BME280;47393;38.758;-9.164;2022-07-19T07:15:45;100918.75;;;31.69;37.99
61524;BME280;47393;38.758;-9.164;2022-07-19T07:17:52;100928.06;;;31.00;39.39
61524;BME280;47393;38.758;-9.164;2022-07-19T07:19:59;100917.38;;;30.01;41.29
61524;BME280;47393;38.758;-9.164;2022-07-19T07:22:09;100892.28;;;30.23;40.61
61524;BME280;47393;38.758;-9.164;2022-07-19T07:24:14;100937.38;;;30.87;40.01
61524;BME280;47393;38.758;-9.164;2022-07-19T07:26:15;100901.59;;;30.27;39.77
61524;BME280;47393;38.758;-9.164;2022-07-19T07:28:29;100901.66;;;32.18;36.15
61524;BME280;47393;38.758;-9.164;2022-07-19T07:30:50;100889.38;;;32.15;36.02
61524;BME280;47393;38.758;-9.164;2022-07-19T07:33:08;100909.53;;;32.47;35.21
61524;BME280;47393;38.758;-9.164;2022-07-19T07:35:16;100886.25;;;31.79;35.28
61524;BME280;47393;38.758;-9.164;2022-07-19T07:37:34;100913.59;;;30.94;36.72
61524;BME280;47393;38.758;-9.164;2022-07-19T07:39:43;100875.16;;;30.51;37.63
61524;BME280;47393;38.758;-9.164;2022-07-19T07:41:52;100914.22;;;31.35;36.32
61524;BME280;47393;38.758;-9.164;2022-07-19T07:44:07;100902.97;;;31.49;35.98
61524;BME280;47393;38.758;-9.164;2022-07-19T07:46:09;100899.91;;;31.23;36.13
61524;BME280;47393;38.758;-9.164;2022-07-19T07:48:22;100936.66;;;31.87;35.50
61524;BME280;47393;38.758;-9.164;2022-07-19T07:50:26;100890.75;;;31.29;35.96
61524;BME280;47393;38.758;-9.164;2022-07-19T07:52:30;100906.78;;;31.48;35.06
61524;BME280;47393;38.758;-9.164;2022-07-19T07:54:37;100904.03;;;31.26;35.80
61524;BME280;47393;38.758;-9.164;2022-07-19T07:56:46;100914.75;;;31.32;35.36
61524;BME280;47393;38.758;-9.164;2022-07-19T07:58:48;100949.34;;;30.28;37.65
61524;BME280;47393;38.758;-9.164;2022-07-19T08:00:55;100919.72;;;29.33;39.92
61524;BME280;47393;38.758;-9.164;2022-07-19T08:02:56;100894.97;;;30.06;37.98
61524;BME280;47393;38.758;-9.164;2022-07-19T08:04:57;100921.56;;;33.21;33.07
61524;BME280;47393;38.758;-9.164;2022-07-19T08:07:01;100940.66;;;35.35;29.23
61524;BME280;47393;38.758;-9.164;2022-07-19T08:09:06;100928.38;;;34.55;29.76
61524;BME280;47393;38.758;-9.164;2022-07-19T08:11:08;100953.84;;;33.34;32.52
61524;BME280;47393;38.758;-9.164;2022-07-19T08:13:09;100944.22;;;33.74;31.81
61524;BME280;47393;38.758;-9.164;2022-07-19T08:15:10;100908.28;;;31.38;35.27
61524;BME280;47393;38.758;-9.164;2022-07-19T08:17:12;100964.47;;;30.53;37.64
61524;BME280;47393;38.758;-9.164;2022-07-19T08:19:18;100947.22;;;28.22;42.61
61524;BME280;47393;38.758;-9.164;2022-07-19T08:21:22;100938.69;;;27.51;43.84
61524;BME280;47393;38.758;-9.164;2022-07-19T08:23:34;100963.22;;;26.60;45.84
61524;BME280;47393;38.758;-9.164;2022-07-19T08:25:35;100951.00;;;25.34;48.16
61524;BME280;47393;38.758;-9.164;2022-07-19T08:27:39;100928.81;;;24.78;50.42
61524;BME280;47393;38.758;-9.164;2022-07-19T08:29:40;100947.03;;;24.90;50.29
61524;BME280;47393;38.758;-9.164;2022-07-19T08:31:42;100927.56;;;24.81;50.02
61524;BME280;47393;38.758;-9.164;2022-07-19T08:33:52;100906.63;;;24.63;50.11
61524;BME280;47393;38.758;-9.164;2022-07-19T08:36:08;100932.53;;;24.84;50.39
61524;BME280;47393;38.758;-9.164;2022-07-19T08:38:11;100907.44;;;24.57;50.59
61524;BME280;47393;38.758;-9.164;2022-07-19T08:40:15;100914.50;;;24.64;50.70
61524;BME280;47393;38.758;-9.164;2022-07-19T08:42:23;100949.31;;;24.93;50.47
61524;BME280;47393;38.758;-9.164;2022-07-19T08:44:29;100929.69;;;27.32;43.64
61524;BME280;47393;38.758;-9.164;2022-07-19T08:46:41;100947.34;;;30.98;36.48
61524;BME280;47393;38.758;-9.164;2022-07-19T08:48:46;100932.09;;;33.44;31.68
61524;BME280;47393;38.758;-9.164;2022-07-19T08:50:55;100896.50;;;30.77;34.76
61524;BME280;47393;38.758;-9.164;2022-07-19T08:53:00;100961.66;;;29.43;38.36
61524;BME280;47393;38.758;-9.164;2022-07-19T08:55:13;100917.78;;;28.63;39.67
61524;BME280;47393;38.758;-9.164;2022-07-19T08:57:17;100920.09;;;29.49;38.12
61524;BME280;47393;38.758;-9.164;2022-07-19T08:59:40;100925.78;;;28.39;40.07
61524;BME280;47393;38.758;-9.164;2022-07-19T09:01:45;100940.56;;;29.57;37.86
61524;BME280;47393;38.758;-9.164;2022-07-19T09:07:06;100976.44;;;28.62;39.97
61524;BME280;47393;38.758;-9.164;2022-07-19T09:09:31;100971.34;;;27.18;43.84
61524;BME280;47393;38.758;-9.164;2022-07-19T09:11:35;100974.00;;;26.22;45.53
61524;BME280;47393;38.758;-9.164;2022-07-19T09:13:39;100927.75;;;25.60;46.52
61524;BME280;47393;38.758;-9.164;2022-07-19T09:15:48;100981.09;;;26.10;45.96
61524;BME280;47393;38.758;-9.164;2022-07-19T09:18:06;100957.50;;;25.91;45.58
61524;BME280;47393;38.758;-9.164;2022-07-19T09:20:28;100983.13;;;26.21;44.14
61524;BME280;47393;38.758;-9.164;2022-07-19T09:23:00;100926.78;;;26.83;42.32
61524;BME280;47393;38.758;-9.164;2022-07-19T09:28:07;100975.81;;;32.30;31.99
61524;BME280;47393;38.758;-9.164;2022-07-19T09:31:00;100914.72;;;34.55;28.09
61524;BME280;47393;38.758;-9.164;2022-07-19T09:33:43;100981.69;;;32.22;31.53
61524;BME280;47393;38.758;-9.164;2022-07-19T09:36:18;100942.75;;;31.16;32.81
61524;BME280;47393;38.758;-9.164;2022-07-19T09:40:29;100983.69;;;34.20;28.95
61524;BME280;47393;38.758;-9.164;2022-07-19T09:42:36;100967.81;;;34.01;28.72
61524;BME280;47393;38.758;-9.164;2022-07-19T09:44:40;100967.41;;;30.97;33.94
61524;BME280;47393;38.758;-9.164;2022-07-19T09:46:41;100982.72;;;32.98;30.89
61524;BME280;47393;38.758;-9.164;2022-07-19T09:48:45;100969.47;;;34.07;29.00
61524;BME280;47393;38.758;-9.164;2022-07-19T09:50:46;100975.09;;;34.69;28.37
61524;BME280;47393;38.758;-9.164;2022-07-19T09:52:50;100982.81;;;33.93;29.29
61524;BME280;47393;38.758;-9.164;2022-07-19T09:54:52;100987.69;;;34.91;27.93
61524;BME280;47393;38.758;-9.164;2022-07-19T09:56:56;100979.56;;;34.02;28.89
61524;BME280;47393;38.758;-9.164;2022-07-19T09:58:58;100972.06;;;35.48;26.97
61524;BME280;47393;38.758;-9.164;2022-07-19T10:01:02;100966.56;;;36.63;25.84
61524;BME280;47393;38.758;-9.164;2022-07-19T10:03:04;100972.84;;;36.64;25.70
61524;BME280;47393;38.758;-9.164;2022-07-19T10:08:08;100923.44;;;34.31;27.30
61524;BME280;47393;38.758;-9.164;2022-07-19T10:10:29;100961.88;;;35.64;26.15
61524;BME280;47393;38.758;-9.164;2022-07-19T10:12:49;100953.44;;;35.55;25.99
61524;BME280;47393;38.758;-9.164;2022-07-19T10:15:12;100964.13;;;34.38;27.72
61524;BME280;47393;38.758;-9.164;2022-07-19T10:19:57;100982.19;;;35.06;26.76
61524;BME280;47393;38.758;-9.164;2022-07-19T10:22:26;100937.25;;;35.64;25.32
61524;BME280;47393;38.758;-9.164;2022-07-19T10:25:13;100948.84;;;34.73;26.88
61524;BME280;47393;38.758;-9.164;2022-07-19T10:27:43;101005.03;;;35.72;26.06
61524;BME280;47393;38.758;-9.164;2022-07-19T10:30:16;101006.47;;;31.81;31.81
61524;BME280;47393;38.758;-9.164;2022-07-19T10:32:28;100947.78;;;32.07;31.18
61524;BME280;47393;38.758;-9.164;2022-07-19T10:34:44;100984.13;;;33.80;29.19
61524;BME280;47393;38.758;-9.164;2022-07-19T10:36:54;100965.84;;;33.81;28.98
61524;BME280;47393;38.758;-9.164;2022-07-19T10:44:16;100945.59;;;34.51;27.23
61524;BME280;47393;38.758;-9.164;2022-07-19T10:46:32;100946.41;;;33.72;28.43
61524;BME280;47393;38.758;-9.164;2022-07-19T10:48:54;100963.75;;;34.04;28.35
61524;BME280;47393;38.758;-9.164;2022-07-19T10:50:58;100959.06;;;35.84;25.96
61524;BME280;47393;38.758;-9.164;2022-07-19T10:53:02;100942.25;;;35.26;26.97
61524;BME280;47393;38.758;-9.164;2022-07-19T10:55:25;100983.03;;;35.02;27.41
61524;BME280;47393;38.758;-9.164;2022-07-19T10:57:36;100952.31;;;33.54;29.39
61524;BME280;47393;38.758;-9.164;2022-07-19T10:59:44;100926.00;;;33.80;28.87
61524;BME280;47393;38.758;-9.164;2022-07-19T11:02:05;100968.78;;;35.20;27.16
61524;BME280;47393;38.758;-9.164;2022-07-19T11:04:34;100966.16;;;35.91;25.71
61524;BME280;47393;38.758;-9.164;2022-07-19T11:06:38;100941.47;;;35.25;27.09
61524;BME280;47393;38.758;-9.164;2022-07-19T11:08:45;100908.59;;;33.96;28.23
61524;BME280;47393;38.758;-9.164;2022-07-19T11:10:48;100939.88;;;35.04;26.92
61524;BME280;47393;38.758;-9.164;2022-07-19T11:12:49;100959.22;;;34.45;28.13
61524;BME280;47393;38.758;-9.164;2022-07-19T11:14:51;100938.59;;;33.91;28.93
61524;BME280;47393;38.758;-9.164;2022-07-19T11:16:59;100958.19;;;33.30;30.00